Port Clements, Canada
Current Conditions -  °F | °C
As of 6:00 PM on Thursday 18 Dec 2014 (Local Time) from CZMT Reporting Station
Light Rain Light Rain  
Wind Chill: 43°   Ceiling: 2000
Heat Index: 43°   Visibility: 15mi
Dew Point: 41°   Wind: 3mph
Humidity: 93%   Direction: 110°ESE
Pressure: 29.26"   Gusts: NA
Location:  53.68°N, 132.17°W
Report Text: CZMT 190200Z 11003KT 090V160 15SM -RA FEW015 OVC020 06/05 A2926 RMK SC2SC6 LAST OBS/NEXT 191500 UTC SLP910
Loading
Personal Weather Stations






























Interactive Weather Map New forecast layout! Learn more

10-Day Weather Forecast

Advertisements
Track Severe Weather on mobile